createdAt,value
2022-09-18T00:04:23.042Z,8.43
2022-09-18T00:09:45.722Z,8.42
2022-09-18T00:15:08.612Z,8.16
2022-09-18T00:20:31.242Z,8.27
2022-09-18T00:25:53.606Z,8.15
2022-09-18T00:31:22.752Z,8.12
2022-09-18T00:36:45.363Z,8.06
2022-09-18T00:42:07.664Z,7.91
2022-09-18T00:47:33.787Z,7.98
2022-09-18T00:53:02.681Z,7.69
2022-09-18T00:58:24.511Z,7.93
2022-09-18T01:03:46.742Z,7.82
2022-09-18T01:09:28.850Z,7.92
2022-09-18T01:15:10.541Z,7.95
2022-09-18T01:21:06.601Z,7.92
2022-09-18T01:27:01.201Z,7.94
2022-09-18T01:32:28.612Z,7.93
2022-09-18T01:38:19.842Z,7.86
2022-09-18T01:43:44.982Z,7.82
2022-09-18T01:49:21.461Z,7.80
2022-09-18T01:54:48.853Z,7.68
2022-09-18T02:00:13.183Z,7.63
2022-09-18T02:05:46.649Z,7.47
2022-09-18T02:11:14.164Z,7.57
2022-09-18T02:16:53.741Z,7.70
2022-09-18T02:22:20.832Z,7.71
2022-09-18T02:27:44.380Z,7.11
2022-09-18T02:33:33.883Z,7.10
2022-09-18T02:38:59.348Z,7.68
2022-09-18T02:44:48.427Z,7.65
2022-09-18T02:50:32.081Z,7.65
2022-09-18T02:56:04.073Z,7.60
2022-09-18T03:01:30.512Z,7.60
2022-09-18T03:06:53.819Z,7.57
2022-09-18T03:12:16.603Z,7.39
2022-09-18T03:17:47.230Z,7.56
2022-09-18T03:23:11.292Z,7.53
2022-09-18T04:29:45.507Z,8.52
2022-09-18T04:35:10.982Z,8.92
2022-09-18T04:40:33.805Z,9.35
2022-09-18T04:45:56.384Z,9.66
2022-09-18T04:51:18.801Z,9.69
2022-09-18T04:56:43.212Z,9.87
2022-09-18T05:02:05.809Z,10.01
2022-09-18T05:07:28.230Z,10.29
2022-09-18T05:12:51.959Z,10.73
2022-09-18T05:18:15.107Z,11.11
2022-09-18T05:23:39.392Z,11.32
2022-09-18T05:35:00.521Z,11.68
2022-09-18T05:40:32.597Z,11.86
2022-09-18T05:46:07.326Z,12.56
2022-09-18T05:51:39.747Z,12.61
2022-09-18T05:57:02.992Z,12.85
2022-09-18T06:02:36.650Z,13.38
2022-09-18T06:08:16.761Z,13.76
2022-09-18T06:14:12.073Z,14.40
2022-09-18T06:20:54.282Z,14.81
2022-09-18T06:26:38.047Z,15.11
2022-09-18T06:32:01.246Z,15.32
2022-09-18T06:37:23.362Z,15.53
2022-09-18T06:43:17.761Z,15.42
2022-09-18T06:48:59.735Z,15.72
2022-09-18T06:54:22.414Z,15.89
2022-09-18T06:59:44.833Z,16.36
2022-09-18T07:05:08.271Z,16.72
2022-09-18T07:10:36.254Z,17.09
2022-09-18T07:15:59.021Z,17.32
2022-09-18T07:21:21.791Z,17.59
2022-09-18T07:26:47.142Z,17.32
2022-09-18T07:32:19.061Z,17.52
2022-09-18T07:37:54.681Z,17.36
2022-09-18T07:43:32.971Z,17.58
2022-09-18T07:49:10.819Z,17.57
2022-09-18T07:54:43.811Z,17.82
2022-09-18T08:00:24.853Z,17.48
2022-09-18T08:06:09.464Z,17.18
2022-09-18T08:11:35.051Z,17.09
2022-09-18T08:17:32.532Z,17.23
2022-09-18T08:23:43.998Z,17.21
2022-09-18T08:29:20.754Z,17.68
2022-09-18T08:34:55.302Z,17.67
2022-09-18T08:40:22.025Z,17.66
2022-09-18T08:46:21.632Z,17.83
2022-09-18T08:51:55.004Z,17.75
2022-09-18T08:57:23.304Z,17.93
2022-09-18T09:03:25.743Z,18.19
2022-09-18T09:08:59.519Z,18.08
2022-09-18T09:14:56.118Z,18.37
2022-09-18T09:20:46.089Z,17.73
2022-09-18T09:26:23.601Z,17.03
2022-09-18T09:39:28.262Z,17.50
2022-09-18T09:45:32.921Z,17.20
2022-09-18T09:51:28.428Z,17.02
2022-09-18T09:56:54.303Z,16.94
2022-09-18T10:03:12.413Z,16.88
2022-09-18T10:09:23.174Z,17.34
2022-09-18T10:15:22.792Z,17.15
2022-09-18T10:21:04.599Z,17.13
2022-09-18T10:26:41.653Z,17.14
2022-09-18T10:32:05.602Z,17.11
2022-09-18T10:37:32.761Z,17.03
2022-09-18T10:43:03.161Z,17.08
2022-09-18T10:48:29.300Z,17.15
2022-09-18T10:54:18.831Z,17.12
2022-09-18T11:00:09.631Z,17.04
2022-09-18T11:05:37.942Z,17.07
2022-09-18T11:11:09.850Z,16.96
2022-09-18T11:16:38.847Z,16.95
2022-09-18T11:22:05.002Z,16.93
2022-09-18T11:27:49.483Z,16.42
2022-09-18T11:33:41.673Z,16.34
2022-09-18T11:46:19.715Z,16.66
2022-09-18T11:52:02.072Z,16.58
2022-09-18T11:58:15.379Z,16.27
2022-09-18T12:04:11.534Z,16.36
2022-09-18T12:09:41.803Z,16.27
2022-09-18T12:15:20.139Z,15.81
2022-09-18T12:20:52.574Z,16.23
2022-09-18T12:26:27.250Z,16.18
2022-09-18T12:32:13.556Z,16.12
2022-09-18T12:37:50.681Z,15.99
2022-09-18T12:43:33.938Z,15.80
2022-09-18T12:49:37.131Z,15.73
2022-09-18T12:55:08.737Z,15.50
2022-09-18T13:00:31.935Z,15.31
2022-09-18T13:06:34.179Z,14.92
2022-09-18T13:12:02.545Z,14.73
2022-09-18T13:17:39.332Z,14.67
2022-09-18T13:23:02.239Z,14.55
2022-09-18T13:28:26.486Z,14.24
2022-09-18T13:33:59.826Z,14.32
2022-09-18T13:39:27.988Z,14.27
2022-09-18T13:44:51.095Z,14.15
2022-09-18T13:50:19.195Z,13.94
2022-09-18T13:55:59.587Z,14.08
2022-09-18T14:01:43.523Z,14.00
2022-09-18T14:07:25.483Z,13.93
2022-09-18T14:13:22.490Z,13.76
2022-09-18T14:18:44.732Z,13.78
2022-09-18T14:24:40.317Z,13.68
2022-09-18T14:48:28.863Z,13.66
2022-09-18T14:53:54.184Z,13.10
2022-09-18T14:59:22.027Z,13.28
2022-09-18T15:04:46.169Z,13.00
2022-09-18T15:10:19.526Z,13.01
2022-09-18T15:15:56.780Z,13.44
2022-09-18T15:22:11.206Z,12.99
2022-09-18T15:27:45.665Z,13.42
2022-09-18T15:33:19.394Z,13.39
2022-09-18T15:38:45.653Z,13.40
2022-09-18T15:44:31.495Z,13.39
2022-09-18T15:49:53.963Z,13.36
2022-09-18T15:55:19.038Z,13.33
2022-09-18T16:00:41.758Z,13.40
2022-09-18T16:06:06.940Z,13.39
2022-09-18T16:11:47.241Z,13.38
2022-09-18T16:17:34.818Z,13.34
2022-09-18T16:23:20.637Z,13.29
2022-09-18T16:28:44.607Z,13.33
2022-09-18T16:34:23.967Z,13.30
2022-09-18T16:39:46.029Z,13.27
2022-09-18T16:45:08.557Z,13.27
2022-09-18T16:50:30.554Z,13.26
2022-09-18T16:55:59.186Z,13.20
2022-09-18T17:01:23.882Z,13.22
2022-09-18T17:06:45.926Z,13.28
2022-09-18T17:12:11.222Z,13.26
2022-09-18T17:17:39.492Z,13.26
2022-09-18T17:23:03.295Z,13.28
2022-09-18T17:28:41.126Z,12.88
2022-09-18T17:34:09.533Z,13.00
2022-09-18T17:39:32.015Z,12.79
2022-09-18T17:44:57.348Z,12.89
2022-09-18T17:50:23.855Z,13.25
2022-09-18T17:55:46.418Z,13.08
2022-09-18T18:01:19.798Z,13.24
2022-09-18T18:06:42.847Z,12.78
2022-09-18T18:12:06.423Z,13.02
2022-09-18T18:17:36.449Z,12.86
2022-09-18T18:22:58.649Z,12.71
2022-09-18T18:28:21.777Z,13.07
2022-09-18T18:33:44.915Z,13.19
2022-09-18T18:39:12.476Z,13.10
2022-09-18T18:44:35.068Z,13.04
2022-09-18T18:50:00.394Z,13.11
2022-09-18T18:55:22.675Z,13.13
2022-09-18T19:00:44.545Z,13.12
2022-09-18T19:06:06.869Z,13.11
2022-09-18T19:11:32.276Z,13.10
2022-09-18T19:16:55.415Z,13.04
2022-09-18T19:22:18.284Z,13.07
2022-09-18T19:27:42.893Z,12.63
2022-09-18T19:33:05.992Z,12.59
2022-09-18T19:38:33.306Z,12.87
2022-09-18T19:43:55.566Z,12.78
2022-09-18T19:49:20.806Z,12.64
2022-09-18T19:54:43.035Z,12.75
2022-09-18T20:00:09.316Z,12.84
2022-09-18T20:05:39.473Z,12.73
2022-09-18T20:11:02.103Z,12.75
2022-09-18T20:16:24.745Z,13.07
2022-09-18T20:21:46.856Z,12.80
2022-09-18T20:27:09.356Z,12.71
2022-09-18T20:32:31.985Z,12.72
2022-09-18T20:37:56.297Z,12.90
2022-09-18T20:43:21.492Z,12.60
2022-09-18T20:49:06.208Z,12.64
2022-09-18T20:54:28.549Z,12.73
2022-09-18T20:59:50.884Z,12.57
2022-09-18T21:05:19.009Z,12.58
2022-09-18T21:10:48.458Z,12.50
2022-09-18T21:16:12.172Z,12.56
2022-09-18T21:21:35.200Z,12.83
2022-09-18T21:26:57.479Z,12.99
2022-09-18T21:32:19.439Z,12.98
2022-09-18T21:37:43.065Z,13.00
2022-09-18T21:43:06.021Z,12.93
2022-09-18T21:48:27.932Z,13.02
2022-09-18T21:53:50.758Z,13.02
2022-09-18T21:59:13.381Z,12.98
2022-09-18T22:04:35.812Z,12.97
2022-09-18T22:09:58.862Z,12.85
2022-09-18T22:15:21.363Z,12.90
2022-09-18T22:20:44.081Z,12.88
2022-09-18T22:26:24.059Z,12.92
2022-09-18T22:31:47.761Z,12.71
2022-09-18T22:37:12.160Z,12.72
2022-09-18T22:42:34.644Z,12.45
2022-09-18T22:47:57.203Z,12.40
2022-09-18T22:53:19.423Z,12.87
2022-09-18T22:58:43.784Z,12.71
2022-09-18T23:04:06.764Z,12.65
2022-09-18T23:09:30.022Z,12.88
2022-09-18T23:14:55.773Z,13.00
2022-09-18T23:20:22.042Z,12.82
2022-09-18T23:25:47.013Z,12.73
2022-09-18T23:31:24.396Z,13.00
2022-09-18T23:36:48.563Z,12.96
2022-09-18T23:42:11.484Z,12.94
2022-09-18T23:47:34.702Z,12.98
2022-09-18T23:52:56.802Z,13.06
2022-09-18T23:58:19.342Z,13.08
